Map

Track Data

SID SEASON NUMBER BASIN SUBBASIN NAME ISO_TIME NATURE LAT LON WMO_WIND WMO_PRES WMO_AGENCY TRACK_TYPE DIST2LAND LANDFALL IFLAG USA_AGENCY USA_ATCF_ID USA_LAT USA_LON USA_RECORD USA_STATUS USA_WIND USA_PRES USA_SSHS USA_R34_NE USA_R34_SE USA_R34_SW USA_R34_NW USA_R50_NE USA_R50_SE USA_R50_SW USA_R50_NW USA_R64_NE USA_R64_SE USA_R64_SW USA_R64_NW USA_POCI USA_ROCI USA_RMW USA_EYE TOKYO_LAT TOKYO_LON TOKYO_GRADE TOKYO_WIND TOKYO_PRES TOKYO_R50_DIR TOKYO_R50_LONG TOKYO_R50_SHORT TOKYO_R30_DIR TOKYO_R30_LONG TOKYO_R30_SHORT TOKYO_LAND CMA_LAT CMA_LON CMA_CAT CMA_WIND CMA_PRES HKO_LAT HKO_LON HKO_CAT HKO_WIND HKO_PRES NEWDELHI_LAT NEWDELHI_LON NEWDELHI_GRADE NEWDELHI_WIND NEWDELHI_PRES NEWDELHI_CI NEWDELHI_DP NEWDELHI_POCI REUNION_LAT REUNION_LON REUNION_TYPE REUNION_WIND REUNION_PRES REUNION_TNUM REUNION_CI REUNION_RMW REUNION_R34_NE REUNION_R34_SE REUNION_R34_SW REUNION_R34_NW REUNION_R50_NE REUNION_R50_SE REUNION_R50_SW REUNION_R50_NW REUNION_R64_NE REUNION_R64_SE REUNION_R64_SW REUNION_R64_NW BOM_LAT BOM_LON BOM_TYPE BOM_WIND BOM_PRES BOM_TNUM BOM_CI BOM_RMW BOM_R34_NE BOM_R34_SE BOM_R34_SW BOM_R34_NW BOM_R50_NE BOM_R50_SE BOM_R50_SW BOM_R50_NW BOM_R64_NE BOM_R64_SE BOM_R64_SW BOM_R64_NW BOM_ROCI BOM_POCI BOM_EYE BOM_POS_METHOD BOM_PRES_METHOD NADI_LAT NADI_LON NADI_CAT NADI_WIND NADI_PRES WELLINGTON_LAT WELLINGTON_LON WELLINGTON_WIND WELLINGTON_PRES DS824_LAT DS824_LON DS824_STAGE DS824_WIND DS824_PRES TD9636_LAT TD9636_LON TD9636_STAGE TD9636_WIND TD9636_PRES TD9635_LAT TD9635_LON TD9635_WIND TD9635_PRES TD9635_ROCI NEUMANN_LAT NEUMANN_LON NEUMANN_CLASS NEUMANN_WIND NEUMANN_PRES MLC_LAT MLC_LON MLC_CLASS MLC_WIND MLC_PRES USA_GUST BOM_GUST BOM_GUST_PER REUNION_GUST REUNION_GUST_PER USA_SEAHGT USA_SEARAD_NE USA_SEARAD_SE USA_SEARAD_SW USA_SEARAD_NW STORM_SPEED STORM_DIR
1983236N26284 1983 49 NA NA BARRY 1983-08-23 18:00:00 TS 26.0000 -76.0000 25 1012 hurdat_atl main 224 224 O_____________ hurdat_atl AL041983 26.0000 -76.0000 TD 25 1012 -1 9 346
1983236N26284 1983 49 NA NA BARRY 1983-08-23 21:00:00 TS 26.4226 -76.1196 main 239 239 P_____________ AL041983 26.4226 -76.1196 TD 27 1011 -1 8 347
1983236N26284 1983 49 NA NA BARRY 1983-08-24 00:00:00 TS 26.8000 -76.2000 30 1011 hurdat_atl main 261 261 O_____________ hurdat_atl AL041983 26.8000 -76.2000 TD 30 1011 -1 7 352
1983236N26284 1983 49 NA NA BARRY 1983-08-24 03:00:00 TS 27.1074 -76.2279 main 286 286 P_____________ AL041983 27.1074 -76.2279 TD 35 1010 0 6 352
1983236N26284 1983 49 NA NA BARRY 1983-08-24 06:00:00 TS 27.4000 -76.3000 40 1010 hurdat_atl main 307 307 O_____________ hurdat_atl AL041983 27.4000 -76.3000 TS 40 1010 0 7 341
1983236N26284 1983 49 NA NA BARRY 1983-08-24 09:00:00 TS 27.7949 -76.4970 main 336 336 P_____________ AL041983 27.7949 -76.4970 TS 45 1010 0 8 328
1983236N26284 1983 49 NA NA BARRY 1983-08-24 12:00:00 TS 28.1000 -76.8000 50 1011 hurdat_atl main 347 324 O_____________ hurdat_atl AL041983 28.1000 -76.8000 TS 50 1011 0 7 302
1983236N26284 1983 49 NA NA BARRY 1983-08-24 15:00:00 TS 28.1521 -77.1404 main 324 274 P_____________ AL041983 28.1521 -77.1404 TS 50 1011 0 7 270
1983236N26284 1983 49 NA NA BARRY 1983-08-24 18:00:00 TS 28.1000 -77.6000 50 1011 hurdat_atl main 274 220 O_____________ hurdat_atl AL041983 28.1000 -77.6000 TS 50 1011 0 10 267
1983236N26284 1983 49 NA NA BARRY 1983-08-24 21:00:00 TS 28.1080 -78.2424 main 220 157 P_____________ AL041983 28.1080 -78.2424 TS 47 1011 0 11 270
1983236N26284 1983 49 NA NA BARRY 1983-08-25 00:00:00 TS 28.1000 -78.9000 45 1011 hurdat_atl main 157 110 O_____________ hurdat_atl AL041983 28.1000 -78.9000 TS 45 1011 0 10 267
1983236N26284 1983 49 NA NA BARRY 1983-08-25 03:00:00 TS 28.0585 -79.3743 main 110 69 P_____________ AL041983 28.0585 -79.3743 TS 42 1011 0 8 263
1983236N26284 1983 49 NA NA BARRY 1983-08-25 06:00:00 TS 28.0000 -79.8000 40 1012 hurdat_atl main 69 29 O_____________ hurdat_atl AL041983 28.0000 -79.8000 TS 40 1012 0 8 260
1983236N26284 1983 49 NA NA BARRY 1983-08-25 09:00:00 TS 27.9264 -80.2495 main 29 0 P_____________ AL041983 27.9264 -80.2495 TS 34 1012 0 9 262
1983236N26284 1983 49 NA NA BARRY 1983-08-25 11:00:00 TS 27.9000 -80.6000 30 1013 hurdat_atl main 0 0 O_____________ hurdat_atl AL041983 27.9000 -80.6000 L TD 30 1013 -1 10 267
1983236N26284 1983 49 NA NA BARRY 1983-08-25 12:00:00 TS 27.9000 -80.8000 30 1013 hurdat_atl main 0 0 O_____________ hurdat_atl AL041983 27.9000 -80.8000 TD 30 1013 -1 10 258
1983236N26284 1983 49 NA NA BARRY 1983-08-25 15:00:00 TS 27.7593 -81.3640 main 0 0 P_____________ AL041983 27.7593 -81.3640 TD 27 1013 -1 11 249
1983236N26284 1983 49 NA NA BARRY 1983-08-25 18:00:00 TS 27.5000 -82.0000 25 1014 hurdat_atl main 0 0 O_____________ hurdat_atl AL041983 27.5000 -82.0000 TD 25 1014 -1 14 250
1983236N26284 1983 49 NA GM BARRY 1983-08-25 21:00:00 TS 27.2735 -82.9001 main 29 29 P_____________ AL041983 27.2735 -82.9001 TD 22 1013 -1 17 253
1983236N26284 1983 49 NA GM BARRY 1983-08-26 00:00:00 TS 27.0000 -83.8000 20 1013 hurdat_atl main 123 123 O_____________ hurdat_atl AL041983 27.0000 -83.8000 TD 20 1013 -1 15 246
1983236N26284 1983 49 NA GM BARRY 1983-08-26 03:00:00 TS 26.6565 -84.4371 main 190 190 P_____________ AL041983 26.6565 -84.4371 TD 22 1013 -1 13 237
1983236N26284 1983 49 NA GM BARRY 1983-08-26 06:00:00 TS 26.3000 -85.0000 25 1013 hurdat_atl main 262 262 O_____________ hurdat_atl AL041983 26.3000 -85.0000 TD 25 1013 -1 13 238
1983236N26284 1983 49 NA GM BARRY 1983-08-26 09:00:00 TS 25.9848 -85.6422 main 331 331 P_____________ AL041983 25.9848 -85.6422 TD 27 1012 -1 13 243
1983236N26284 1983 49 NA GM BARRY 1983-08-26 12:00:00 TS 25.7000 -86.3000 30 1012 hurdat_atl main 408 405 O_____________ hurdat_atl AL041983 25.7000 -86.3000 TD 30 1012 -1 13 244
1983236N26284 1983 49 NA GM BARRY 1983-08-26 15:00:00 TS 25.4122 -86.9501 main 428 413 P_____________ AL041983 25.4122 -86.9501 TD 30 1011 -1 13 247
1983236N26284 1983 49 NA GM BARRY 1983-08-26 18:00:00 TS 25.2000 -87.6000 30 1011 hurdat_atl main 413 402 O_____________ hurdat_atl AL041983 25.2000 -87.6000 TD 30 1011 -1 12 255
1983236N26284 1983 49 NA GM BARRY 1983-08-26 21:00:00 TS 25.1047 -88.2497 main 402 402 P_____________ AL041983 25.1047 -88.2497 TD 30 1010 -1 12 265
1983236N26284 1983 49 NA GM BARRY 1983-08-27 00:00:00 TS 25.1000 -88.9000 30 1010 hurdat_atl main 403 403 O_____________ hurdat_atl AL041983 25.1000 -88.9000 TD 30 1010 -1 12 270
1983236N26284 1983 49 NA GM BARRY 1983-08-27 03:00:00 TS 25.0971 -89.5430 main 412 412 P_____________ AL041983 25.0971 -89.5430 TD 30 1009 -1 12 275
1983236N26284 1983 49 NA GM BARRY 1983-08-27 06:00:00 TS 25.2000 -90.2000 30 1009 hurdat_atl main 435 402 O_____________ hurdat_atl AL041983 25.2000 -90.2000 TD 30 1009 -1 13 289
1983236N26284 1983 49 NA GM BARRY 1983-08-27 09:00:00 TS 25.5073 -90.8914 main 402 371 P_____________ AL041983 25.5073 -90.8914 TD 32 1008 -1 14 295
1983236N26284 1983 49 NA GM BARRY 1983-08-27 12:00:00 TS 25.8000 -91.6000 35 1008 hurdat_atl main 374 370 O_____________ hurdat_atl AL041983 25.8000 -91.6000 TS 35 1008 0 13 285
1983236N26284 1983 49 NA GM BARRY 1983-08-27 15:00:00 TS 25.8520 -92.2932 main 383 383 P_____________ AL041983 25.8520 -92.2932 TS 40 1005 0 13 270
1983236N26284 1983 49 NA GM BARRY 1983-08-27 18:00:00 TS 25.8000 -93.0000 45 1002 hurdat_atl main 410 340 O_____________ hurdat_atl AL041983 25.8000 -93.0000 TS 45 1002 0 13 266
1983236N26284 1983 49 NA GM BARRY 1983-08-27 21:00:00 TS 25.7652 -93.7800 main 330 262 P_____________ AL041983 25.7652 -93.7800 TS 52 1000 0 14 266
1983236N26284 1983 49 NA GM BARRY 1983-08-28 00:00:00 TS 25.7000 -94.5000 60 999 hurdat_atl main 262 214 O_____________ hurdat_atl AL041983 25.7000 -94.5000 TS 60 999 0 12 261
1983236N26284 1983 49 NA GM BARRY 1983-08-28 03:00:00 TS 25.5920 -95.0451 main 214 169 P_____________ AL041983 25.5920 -95.0451 TS 60 998 0 9 258
1983236N26284 1983 49 NA GM BARRY 1983-08-28 06:00:00 TS 25.5000 -95.5000 60 998 hurdat_atl main 169 130 O_____________ hurdat_atl AL041983 25.5000 -95.5000 TS 60 998 0 8 263
1983236N26284 1983 49 NA GM BARRY 1983-08-28 09:00:00 TS 25.4936 -95.9407 main 130 80 P_____________ AL041983 25.4936 -95.9407 TS 62 995 0 8 270
1983236N26284 1983 49 NA GM BARRY 1983-08-28 12:00:00 TS 25.5000 -96.4000 65 993 hurdat_atl main 80 37 O_____________ hurdat_atl AL041983 25.5000 -96.4000 HU 65 993 1 9 266
1983236N26284 1983 49 NA GM BARRY 1983-08-28 15:00:00 TS 25.4344 -96.9556 main 30 0 P_____________ AL041983 25.4344 -96.9556 HU 67 989 1 10 264
1983236N26284 1983 49 NA NA BARRY 1983-08-28 17:25:00 TS 25.4000 -97.4000 70 986 hurdat_atl main 0 0 O_____________ hurdat_atl AL041983 25.4000 -97.4000 L HU 70 986 1 10 266
1983236N26284 1983 49 NA NA BARRY 1983-08-28 18:00:00 TS 25.4000 -97.5000 70 986 hurdat_atl main 0 0 O_____________ hurdat_atl AL041983 25.4000 -97.5000 HU 70 986 1 9 274
1983236N26284 1983 49 NA NA BARRY 1983-08-28 21:00:00 TS 25.4412 -98.0040 main 0 0 P_____________ AL041983 25.4412 -98.0040 HU 55 990 0 9 276
1983236N26284 1983 49 NA NA BARRY 1983-08-29 00:00:00 TS 25.5000 -98.5000 40 995 hurdat_atl main 0 0 O_____________ hurdat_atl AL041983 25.5000 -98.5000 TS 40 995 0 9 274
1983236N26284 1983 49 NA NA BARRY 1983-08-29 03:00:00 TS 25.5073 -99.0001 main 0 0 P_____________ AL041983 25.5073 -99.0001 TS 35 1000 0 9 270
1983236N26284 1983 49 NA NA BARRY 1983-08-29 06:00:00 TS 25.5000 -99.5000 30 1005 hurdat_atl main 0 0 O_____________ hurdat_atl AL041983 25.5000 -99.5000 TD 30 1005 -1 9 269
1983236N26284 1983 49 NA NA BARRY 1983-08-29 09:00:00 TS 25.4978 -99.9999 main 0 0 P_____________ AL041983 25.4978 -99.9999 TD 27 1007 -1 9 270
1983236N26284 1983 49 NA NA BARRY 1983-08-29 12:00:00 TS 25.5000 -100.500 25 1010 hurdat_atl main 0 O_____________ hurdat_atl AL041983 25.5000 -100.500 TD 25 1010 -1 9 270

About IBTrACS Database

This database is a web-friendly format of International Best Track Archive for Climate Stewardship (IBTrACS), a global best track data archive curated by NOAA dating back to 1842.

Updated: 2021-10-08